sensor_id;sensor_type;location;lat;lon;timestamp;P1;durP1;ratioP1;P2;durP2;ratioP2
21152;SDS011;10734;44.792;20.482;2022-12-28T00:02:12;11.68;;;4.88;;
21152;SDS011;10734;44.792;20.482;2022-12-28T00:04:39;10.98;;;4.57;;
21152;SDS011;10734;44.792;20.482;2022-12-28T00:07:06;22.45;;;7.60;;
21152;SDS011;10734;44.792;20.482;2022-12-28T00:09:32;13.95;;;4.97;;
21152;SDS011;10734;44.792;20.482;2022-12-28T00:11:59;9.30;;;4.40;;
21152;SDS011;10734;44.792;20.482;2022-12-28T00:14:25;11.95;;;4.15;;
21152;SDS011;10734;44.792;20.482;2022-12-28T00:16:52;9.13;;;3.53;;
21152;SDS011;10734;44.792;20.482;2022-12-28T00:19:18;7.72;;;3.85;;
21152;SDS011;10734;44.792;20.482;2022-12-28T00:21:45;7.00;;;3.58;;
21152;SDS011;10734;44.792;20.482;2022-12-28T00:24:16;10.75;;;4.13;;
21152;SDS011;10734;44.792;20.482;2022-12-28T00:26:43;12.02;;;5.32;;
21152;SDS011;10734;44.792;20.482;2022-12-28T00:29:10;14.40;;;5.43;;
21152;SDS011;10734;44.792;20.482;2022-12-28T00:31:37;14.65;;;5.18;;
21152;SDS011;10734;44.792;20.482;2022-12-28T00:34:03;7.97;;;4.00;;
21152;SDS011;10734;44.792;20.482;2022-12-28T00:36:30;8.02;;;4.28;;
21152;SDS011;10734;44.792;20.482;2022-12-28T00:39:17;11.07;;;4.88;;
21152;SDS011;10734;44.792;20.482;2022-12-28T00:41:44;13.32;;;4.60;;
21152;SDS011;10734;44.792;20.482;2022-12-28T00:44:11;9.52;;;4.50;;
21152;SDS011;10734;44.792;20.482;2022-12-28T00:46:37;8.40;;;4.10;;
21152;SDS011;10734;44.792;20.482;2022-12-28T00:49:04;13.75;;;4.25;;
21152;SDS011;10734;44.792;20.482;2022-12-28T00:51:30;10.25;;;4.65;;
21152;SDS011;10734;44.792;20.482;2022-12-28T00:53:57;11.77;;;4.45;;
21152;SDS011;10734;44.792;20.482;2022-12-28T00:56:23;7.88;;;3.72;;
21152;SDS011;10734;44.792;20.482;2022-12-28T00:58:54;8.73;;;4.10;;
21152;SDS011;10734;44.792;20.482;2022-12-28T01:01:21;8.57;;;3.92;;
21152;SDS011;10734;44.792;20.482;2022-12-28T01:03:48;8.13;;;4.20;;
21152;SDS011;10734;44.792;20.482;2022-12-28T01:06:16;15.40;;;4.80;;
21152;SDS011;10734;44.792;20.482;2022-12-28T01:08:42;12.75;;;5.55;;
21152;SDS011;10734;44.792;20.482;2022-12-28T01:11:13;12.52;;;4.80;;
21152;SDS011;10734;44.792;20.482;2022-12-28T01:13:41;12.27;;;5.32;;
21152;SDS011;10734;44.792;20.482;2022-12-28T01:16:14;11.98;;;5.50;;
21152;SDS011;10734;44.792;20.482;2022-12-28T01:18:41;11.60;;;5.38;;
21152;SDS011;10734;44.792;20.482;2022-12-28T01:21:09;14.57;;;5.95;;
21152;SDS011;10734;44.792;20.482;2022-12-28T01:23:36;10.43;;;5.88;;
21152;SDS011;10734;44.792;20.482;2022-12-28T01:26:02;9.00;;;4.97;;
21152;SDS011;10734;44.792;20.482;2022-12-28T01:28:29;19.42;;;7.28;;
21152;SDS011;10734;44.792;20.482;2022-12-28T01:30:56;16.27;;;7.93;;
21152;SDS011;10734;44.792;20.482;2022-12-28T01:33:22;18.20;;;8.55;;
21152;SDS011;10734;44.792;20.482;2022-12-28T01:35:48;15.95;;;8.48;;
21152;SDS011;10734;44.792;20.482;2022-12-28T01:38:15;20.65;;;9.70;;
21152;SDS011;10734;44.792;20.482;2022-12-28T01:40:41;15.13;;;7.38;;
21152;SDS011;10734;44.792;20.482;2022-12-28T01:43:11;17.02;;;7.90;;
21152;SDS011;10734;44.792;20.482;2022-12-28T01:45:38;17.90;;;8.07;;
21152;SDS011;10734;44.792;20.482;2022-12-28T01:48:06;19.83;;;9.07;;
21152;SDS011;10734;44.792;20.482;2022-12-28T01:50:39;25.50;;;9.93;;
21152;SDS011;10734;44.792;20.482;2022-12-28T01:53:06;21.23;;;9.73;;
21152;SDS011;10734;44.792;20.482;2022-12-28T01:55:33;19.55;;;9.07;;
21152;SDS011;10734;44.792;20.482;2022-12-28T01:58:02;19.48;;;8.70;;
21152;SDS011;10734;44.792;20.482;2022-12-28T02:00:29;21.50;;;10.18;;
21152;SDS011;10734;44.792;20.482;2022-12-28T02:02:56;21.83;;;9.27;;
21152;SDS011;10734;44.792;20.482;2022-12-28T02:05:26;27.95;;;10.05;;
21152;SDS011;10734;44.792;20.482;2022-12-28T02:07:56;26.67;;;8.43;;
21152;SDS011;10734;44.792;20.482;2022-12-28T02:10:26;15.10;;;7.33;;
21152;SDS011;10734;44.792;20.482;2022-12-28T02:13:10;20.98;;;9.18;;
21152;SDS011;10734;44.792;20.482;2022-12-28T02:15:37;23.63;;;9.88;;
21152;SDS011;10734;44.792;20.482;2022-12-28T02:18:04;18.50;;;7.90;;
21152;SDS011;10734;44.792;20.482;2022-12-28T02:23:28;21.23;;;8.68;;
21152;SDS011;10734;44.792;20.482;2022-12-28T02:36:43;34.47;;;12.25;;
21152;SDS011;10734;44.792;20.482;2022-12-28T02:39:21;28.98;;;13.25;;
21152;SDS011;10734;44.792;20.482;2022-12-28T02:41:49;35.35;;;13.82;;
21152;SDS011;10734;44.792;20.482;2022-12-28T02:44:15;25.02;;;11.88;;
21152;SDS011;10734;44.792;20.482;2022-12-28T02:47:02;24.30;;;11.38;;
21152;SDS011;10734;44.792;20.482;2022-12-28T02:49:47;29.50;;;12.30;;
21152;SDS011;10734;44.792;20.482;2022-12-28T02:52:53;29.30;;;11.70;;
21152;SDS011;10734;44.792;20.482;2022-12-28T02:58:30;21.80;;;10.90;;
21152;SDS011;10734;44.792;20.482;2022-12-28T03:01:24;24.70;;;11.55;;
21152;SDS011;10734;44.792;20.482;2022-12-28T03:04:06;22.80;;;10.70;;
21152;SDS011;10734;44.792;20.482;2022-12-28T03:09:34;25.70;;;11.45;;
21152;SDS011;10734;44.792;20.482;2022-12-28T03:12:37;23.75;;;10.43;;
21152;SDS011;10734;44.792;20.482;2022-12-28T03:15:04;25.08;;;11.88;;
21152;SDS011;10734;44.792;20.482;2022-12-28T03:17:32;23.42;;;9.88;;
21152;SDS011;10734;44.792;20.482;2022-12-28T03:20:20;20.35;;;9.50;;
21152;SDS011;10734;44.792;20.482;2022-12-28T03:23:06;20.63;;;9.82;;
21152;SDS011;10734;44.792;20.482;2022-12-28T03:25:52;20.05;;;9.80;;
21152;SDS011;10734;44.792;20.482;2022-12-28T03:28:37;27.90;;;11.68;;
21152;SDS011;10734;44.792;20.482;2022-12-28T03:31:23;27.90;;;12.90;;
21152;SDS011;10734;44.792;20.482;2022-12-28T03:33:51;24.70;;;12.07;;
21152;SDS011;10734;44.792;20.482;2022-12-28T03:41:31;28.40;;;13.38;;
21152;SDS011;10734;44.792;20.482;2022-12-28T03:44:01;26.20;;;11.82;;
21152;SDS011;10734;44.792;20.482;2022-12-28T03:46:31;33.58;;;12.63;;
21152;SDS011;10734;44.792;20.482;2022-12-28T03:48:59;29.85;;;12.00;;
21152;SDS011;10734;44.792;20.482;2022-12-28T03:51:26;24.63;;;11.70;;
21152;SDS011;10734;44.792;20.482;2022-12-28T03:53:54;23.35;;;10.73;;
21152;SDS011;10734;44.792;20.482;2022-12-28T03:56:24;24.02;;;10.80;;
21152;SDS011;10734;44.792;20.482;2022-12-28T03:58:51;20.95;;;9.63;;
21152;SDS011;10734;44.792;20.482;2022-12-28T04:01:18;23.20;;;11.00;;
21152;SDS011;10734;44.792;20.482;2022-12-28T04:03:44;22.88;;;9.15;;
21152;SDS011;10734;44.792;20.482;2022-12-28T04:06:12;17.67;;;8.80;;
21152;SDS011;10734;44.792;20.482;2022-12-28T04:08:38;17.27;;;8.75;;
21152;SDS011;10734;44.792;20.482;2022-12-28T04:11:05;21.58;;;9.88;;
21152;SDS011;10734;44.792;20.482;2022-12-28T04:13:32;19.08;;;9.95;;
21152;SDS011;10734;44.792;20.482;2022-12-28T04:16:00;27.70;;;10.40;;
21152;SDS011;10734;44.792;20.482;2022-12-28T04:18:27;21.60;;;10.73;;
21152;SDS011;10734;44.792;20.482;2022-12-28T04:20:53;21.08;;;10.50;;
21152;SDS011;10734;44.792;20.482;2022-12-28T04:23:20;22.85;;;10.52;;
21152;SDS011;10734;44.792;20.482;2022-12-28T04:26:00;24.25;;;9.30;;
21152;SDS011;10734;44.792;20.482;2022-12-28T04:28:26;19.52;;;9.30;;
21152;SDS011;10734;44.792;20.482;2022-12-28T04:30:53;17.30;;;8.40;;
21152;SDS011;10734;44.792;20.482;2022-12-28T04:33:20;20.90;;;8.32;;
21152;SDS011;10734;44.792;20.482;2022-12-28T04:35:46;20.13;;;8.40;;
21152;SDS011;10734;44.792;20.482;2022-12-28T04:38:13;16.67;;;7.97;;
21152;SDS011;10734;44.792;20.482;2022-12-28T04:40:40;18.67;;;8.63;;
21152;SDS011;10734;44.792;20.482;2022-12-28T04:43:06;21.63;;;9.93;;
21152;SDS011;10734;44.792;20.482;2022-12-28T04:45:33;26.27;;;11.38;;
21152;SDS011;10734;44.792;20.482;2022-12-28T04:47:59;21.15;;;9.10;;
21152;SDS011;10734;44.792;20.482;2022-12-28T04:50:26;19.35;;;9.98;;
21152;SDS011;10734;44.792;20.482;2022-12-28T04:52:52;17.58;;;8.27;;
21152;SDS011;10734;44.792;20.482;2022-12-28T04:55:20;23.38;;;8.60;;
21152;SDS011;10734;44.792;20.482;2022-12-28T04:57:58;19.77;;;8.82;;
21152;SDS011;10734;44.792;20.482;2022-12-28T05:00:24;14.63;;;7.22;;
21152;SDS011;10734;44.792;20.482;2022-12-28T05:02:51;15.45;;;7.30;;
21152;SDS011;10734;44.792;20.482;2022-12-28T05:05:17;16.70;;;6.18;;
21152;SDS011;10734;44.792;20.482;2022-12-28T05:07:44;17.45;;;5.70;;
21152;SDS011;10734;44.792;20.482;2022-12-28T05:10:10;12.57;;;4.63;;
21152;SDS011;10734;44.792;20.482;2022-12-28T05:12:37;11.63;;;5.47;;
21152;SDS011;10734;44.792;20.482;2022-12-28T05:15:03;18.02;;;6.68;;
21152;SDS011;10734;44.792;20.482;2022-12-28T05:17:30;11.20;;;5.68;;
21152;SDS011;10734;44.792;20.482;2022-12-28T05:19:56;16.50;;;6.00;;
21152;SDS011;10734;44.792;20.482;2022-12-28T05:22:23;10.73;;;5.35;;
21152;SDS011;10734;44.792;20.482;2022-12-28T05:24:49;13.40;;;6.63;;
21152;SDS011;10734;44.792;20.482;2022-12-28T05:27:16;11.35;;;6.22;;
21152;SDS011;10734;44.792;20.482;2022-12-28T05:29:42;12.75;;;7.35;;
21152;SDS011;10734;44.792;20.482;2022-12-28T05:32:09;14.85;;;7.32;;
21152;SDS011;10734;44.792;20.482;2022-12-28T05:34:35;30.52;;;13.23;;
21152;SDS011;10734;44.792;20.482;2022-12-28T05:37:01;46.95;;;16.27;;
21152;SDS011;10734;44.792;20.482;2022-12-28T05:39:28;34.90;;;14.30;;
21152;SDS011;10734;44.792;20.482;2022-12-28T05:41:55;29.92;;;13.07;;
21152;SDS011;10734;44.792;20.482;2022-12-28T05:44:25;32.80;;;12.75;;
21152;SDS011;10734;44.792;20.482;2022-12-28T05:46:52;29.63;;;12.13;;
21152;SDS011;10734;44.792;20.482;2022-12-28T05:49:19;24.00;;;10.45;;
21152;SDS011;10734;44.792;20.482;2022-12-28T05:51:47;25.25;;;10.35;;
21152;SDS011;10734;44.792;20.482;2022-12-28T05:54:13;16.98;;;8.75;;
21152;SDS011;10734;44.792;20.482;2022-12-28T05:56:40;16.83;;;7.88;;
21152;SDS011;10734;44.792;20.482;2022-12-28T05:59:07;19.85;;;8.32;;
21152;SDS011;10734;44.792;20.482;2022-12-28T06:01:35;15.68;;;8.48;;
21152;SDS011;10734;44.792;20.482;2022-12-28T06:04:04;20.13;;;7.78;;
21152;SDS011;10734;44.792;20.482;2022-12-28T06:06:32;15.27;;;7.45;;
21152;SDS011;10734;44.792;20.482;2022-12-28T06:08:58;17.98;;;8.13;;
21152;SDS011;10734;44.792;20.482;2022-12-28T06:11:26;18.67;;;8.65;;
21152;SDS011;10734;44.792;20.482;2022-12-28T06:13:53;19.70;;;8.57;;
21152;SDS011;10734;44.792;20.482;2022-12-28T06:16:27;16.48;;;7.22;;
21152;SDS011;10734;44.792;20.482;2022-12-28T06:18:53;20.42;;;8.70;;
21152;SDS011;10734;44.792;20.482;2022-12-28T06:23:47;19.88;;;7.35;;
21152;SDS011;10734;44.792;20.482;2022-12-28T06:26:15;20.23;;;8.23;;
21152;SDS011;10734;44.792;20.482;2022-12-28T06:28:42;21.40;;;8.40;;
21152;SDS011;10734;44.792;20.482;2022-12-28T06:31:13;18.33;;;7.13;;
21152;SDS011;10734;44.792;20.482;2022-12-28T06:33:40;14.65;;;6.70;;
21152;SDS011;10734;44.792;20.482;2022-12-28T06:36:13;21.50;;;7.03;;
21152;SDS011;10734;44.792;20.482;2022-12-28T06:38:46;14.82;;;7.10;;
21152;SDS011;10734;44.792;20.482;2022-12-28T06:41:13;16.70;;;6.47;;
21152;SDS011;10734;44.792;20.482;2022-12-28T06:43:41;14.65;;;6.07;;
21152;SDS011;10734;44.792;20.482;2022-12-28T06:46:08;17.92;;;8.20;;
21152;SDS011;10734;44.792;20.482;2022-12-28T06:48:34;32.35;;;14.05;;
21152;SDS011;10734;44.792;20.482;2022-12-28T06:51:02;41.58;;;15.63;;
21152;SDS011;10734;44.792;20.482;2022-12-28T06:53:31;40.15;;;17.05;;
21152;SDS011;10734;44.792;20.482;2022-12-28T06:55:58;42.03;;;16.73;;
21152;SDS011;10734;44.792;20.482;2022-12-28T06:58:25;46.90;;;19.10;;
21152;SDS011;10734;44.792;20.482;2022-12-28T07:00:52;45.08;;;19.63;;
21152;SDS011;10734;44.792;20.482;2022-12-28T07:03:20;49.97;;;20.00;;
21152;SDS011;10734;44.792;20.482;2022-12-28T07:05:47;47.58;;;20.13;;
21152;SDS011;10734;44.792;20.482;2022-12-28T07:08:13;56.17;;;22.20;;
21152;SDS011;10734;44.792;20.482;2022-12-28T07:10:40;49.75;;;21.70;;
21152;SDS011;10734;44.792;20.482;2022-12-28T07:13:06;63.63;;;23.80;;
21152;SDS011;10734;44.792;20.482;2022-12-28T07:15:34;49.47;;;23.10;;
21152;SDS011;10734;44.792;20.482;2022-12-28T07:18:00;51.83;;;23.63;;
21152;SDS011;10734;44.792;20.482;2022-12-28T07:20:27;57.40;;;25.15;;
21152;SDS011;10734;44.792;20.482;2022-12-28T07:22:53;56.00;;;25.05;;
21152;SDS011;10734;44.792;20.482;2022-12-28T07:25:20;51.97;;;23.02;;
21152;SDS011;10734;44.792;20.482;2022-12-28T07:27:46;44.88;;;20.50;;
21152;SDS011;10734;44.792;20.482;2022-12-28T07:30:13;42.67;;;18.90;;
21152;SDS011;10734;44.792;20.482;2022-12-28T07:32:40;64.38;;;17.08;;
21152;SDS011;10734;44.792;20.482;2022-12-28T07:35:06;43.88;;;18.45;;
21152;SDS011;10734;44.792;20.482;2022-12-28T07:37:33;39.60;;;19.10;;
21152;SDS011;10734;44.792;20.482;2022-12-28T07:39:59;47.78;;;19.50;;
21152;SDS011;10734;44.792;20.482;2022-12-28T07:42:29;38.92;;;16.58;;
21152;SDS011;10734;44.792;20.482;2022-12-28T07:44:55;20.70;;;10.63;;
21152;SDS011;10734;44.792;20.482;2022-12-28T07:47:22;21.33;;;10.68;;
21152;SDS011;10734;44.792;20.482;2022-12-28T07:49:48;21.08;;;10.68;;
21152;SDS011;10734;44.792;20.482;2022-12-28T07:52:15;28.02;;;10.70;;
21152;SDS011;10734;44.792;20.482;2022-12-28T07:54:41;19.17;;;9.52;;
21152;SDS011;10734;44.792;20.482;2022-12-28T07:57:08;19.35;;;8.95;;
21152;SDS011;10734;44.792;20.482;2022-12-28T07:59:34;17.20;;;9.30;;
21152;SDS011;10734;44.792;20.482;2022-12-28T08:02:01;18.33;;;9.00;;
21152;SDS011;10734;44.792;20.482;2022-12-28T08:04:27;25.35;;;8.57;;
21152;SDS011;10734;44.792;20.482;2022-12-28T08:06:54;23.23;;;9.75;;
21152;SDS011;10734;44.792;20.482;2022-12-28T08:09:21;20.23;;;9.88;;
21152;SDS011;10734;44.792;20.482;2022-12-28T08:11:49;63.92;;;29.88;;
21152;SDS011;10734;44.792;20.482;2022-12-28T08:14:15;63.58;;;28.45;;
21152;SDS011;10734;44.792;20.482;2022-12-28T08:16:42;63.92;;;26.38;;
21152;SDS011;10734;44.792;20.482;2022-12-28T08:19:09;54.95;;;25.90;;
21152;SDS011;10734;44.792;20.482;2022-12-28T08:21:37;66.30;;;28.95;;
21152;SDS011;10734;44.792;20.482;2022-12-28T08:24:05;61.45;;;28.60;;
21152;SDS011;10734;44.792;20.482;2022-12-28T08:26:33;52.55;;;27.27;;
21152;SDS011;10734;44.792;20.482;2022-12-28T08:29:01;63.22;;;27.83;;
21152;SDS011;10734;44.792;20.482;2022-12-28T08:31:31;59.95;;;29.00;;
21152;SDS011;10734;44.792;20.482;2022-12-28T08:33:59;54.55;;;27.50;;
21152;SDS011;10734;44.792;20.482;2022-12-28T08:36:26;54.47;;;26.10;;
21152;SDS011;10734;44.792;20.482;2022-12-28T08:38:53;63.60;;;25.90;;
21152;SDS011;10734;44.792;20.482;2022-12-28T08:41:20;51.38;;;24.58;;
21152;SDS011;10734;44.792;20.482;2022-12-28T08:43:47;49.17;;;22.92;;
21152;SDS011;10734;44.792;20.482;2022-12-28T08:46:16;52.17;;;21.67;;
21152;SDS011;10734;44.792;20.482;2022-12-28T08:48:43;40.30;;;19.42;;
21152;SDS011;10734;44.792;20.482;2022-12-28T08:51:22;35.47;;;15.80;;
21152;SDS011;10734;44.792;20.482;2022-12-28T08:53:48;28.25;;;14.02;;
21152;SDS011;10734;44.792;20.482;2022-12-28T08:56:16;21.88;;;10.80;;
21152;SDS011;10734;44.792;20.482;2022-12-28T08:58:44;23.98;;;12.70;;
21152;SDS011;10734;44.792;20.482;2022-12-28T09:03:39;32.88;;;14.40;;
21152;SDS011;10734;44.792;20.482;2022-12-28T09:06:10;26.30;;;13.15;;
21152;SDS011;10734;44.792;20.482;2022-12-28T09:08:37;26.63;;;13.57;;
21152;SDS011;10734;44.792;20.482;2022-12-28T09:11:05;25.40;;;13.07;;
21152;SDS011;10734;44.792;20.482;2022-12-28T09:13:32;30.73;;;12.73;;
21152;SDS011;10734;44.792;20.482;2022-12-28T09:16:00;23.85;;;12.80;;
21152;SDS011;10734;44.792;20.482;2022-12-28T09:18:27;27.38;;;12.32;;
21152;SDS011;10734;44.792;20.482;2022-12-28T09:20:54;21.83;;;10.75;;
21152;SDS011;10734;44.792;20.482;2022-12-28T09:23:21;26.58;;;12.57;;
21152;SDS011;10734;44.792;20.482;2022-12-28T09:25:48;20.52;;;9.57;;
21152;SDS011;10734;44.792;20.482;2022-12-28T09:28:15;19.10;;;10.38;;
21152;SDS011;10734;44.792;20.482;2022-12-28T09:30:42;23.73;;;10.88;;
21152;SDS011;10734;44.792;20.482;2022-12-28T09:33:09;20.02;;;9.65;;
21152;SDS011;10734;44.792;20.482;2022-12-28T09:35:57;16.83;;;9.45;;
21152;SDS011;10734;44.792;20.482;2022-12-28T09:38:25;16.75;;;8.07;;
21152;SDS011;10734;44.792;20.482;2022-12-28T09:40:52;18.75;;;8.90;;
21152;SDS011;10734;44.792;20.482;2022-12-28T09:43:19;15.93;;;7.45;;
21152;SDS011;10734;44.792;20.482;2022-12-28T09:45:47;12.05;;;6.97;;
21152;SDS011;10734;44.792;20.482;2022-12-28T09:48:15;18.98;;;8.65;;
21152;SDS011;10734;44.792;20.482;2022-12-28T09:50:44;12.27;;;6.82;;
21152;SDS011;10734;44.792;20.482;2022-12-28T09:53:26;13.90;;;6.80;;
21152;SDS011;10734;44.792;20.482;2022-12-28T09:56:01;13.57;;;6.53;;
21152;SDS011;10734;44.792;20.482;2022-12-28T09:58:44;11.63;;;6.10;;
21152;SDS011;10734;44.792;20.482;2022-12-28T10:01:13;15.18;;;6.75;;
21152;SDS011;10734;44.792;20.482;2022-12-28T10:03:44;11.73;;;6.93;;
21152;SDS011;10734;44.792;20.482;2022-12-28T10:08:53;18.52;;;11.15;;
21152;SDS011;10734;44.792;20.482;2022-12-28T10:11:37;19.88;;;11.18;;
21152;SDS011;10734;44.792;20.482;2022-12-28T10:14:17;21.88;;;12.32;;
21152;SDS011;10734;44.792;20.482;2022-12-28T10:16:46;19.92;;;12.35;;
21152;SDS011;10734;44.792;20.482;2022-12-28T10:19:17;19.92;;;12.30;;
21152;SDS011;10734;44.792;20.482;2022-12-28T10:21:48;22.58;;;13.70;;
21152;SDS011;10734;44.792;20.482;2022-12-28T10:24:26;23.90;;;13.32;;
21152;SDS011;10734;44.792;20.482;2022-12-28T10:26:57;24.60;;;12.20;;
21152;SDS011;10734;44.792;20.482;2022-12-28T10:29:53;26.67;;;13.27;;
21152;SDS011;10734;44.792;20.482;2022-12-28T10:32:20;21.08;;;12.18;;
21152;SDS011;10734;44.792;20.482;2022-12-28T10:34:55;25.85;;;13.13;;
21152;SDS011;10734;44.792;20.482;2022-12-28T10:37:25;21.05;;;13.02;;
21152;SDS011;10734;44.792;20.482;2022-12-28T10:39:56;23.48;;;14.52;;
21152;SDS011;10734;44.792;20.482;2022-12-28T10:42:29;22.02;;;12.02;;
21152;SDS011;10734;44.792;20.482;2022-12-28T10:45:16;22.38;;;12.25;;
21152;SDS011;10734;44.792;20.482;2022-12-28T10:47:46;21.35;;;11.93;;
21152;SDS011;10734;44.792;20.482;2022-12-28T10:53:46;17.40;;;10.48;;
21152;SDS011;10734;44.792;20.482;2022-12-28T10:56:06;15.45;;;9.68;;
21152;SDS011;10734;44.792;20.482;2022-12-28T10:58:40;18.67;;;10.48;;
21152;SDS011;10734;44.792;20.482;2022-12-28T11:03:41;24.17;;;15.05;;
21152;SDS011;10734;44.792;20.482;2022-12-28T11:06:28;19.77;;;11.50;;
21152;SDS011;10734;44.792;20.482;2022-12-28T11:11:29;18.10;;;11.23;;
21152;SDS011;10734;44.792;20.482;2022-12-28T11:19:15;24.10;;;10.25;;
21152;SDS011;10734;44.792;20.482;2022-12-28T11:21:44;15.38;;;10.23;;
21152;SDS011;10734;44.792;20.482;2022-12-28T11:24:13;13.32;;;8.60;;
21152;SDS011;10734;44.792;20.482;2022-12-28T11:26:44;17.85;;;9.18;;
21152;SDS011;10734;44.792;20.482;2022-12-28T11:29:15;14.50;;;9.45;;
21152;SDS011;10734;44.792;20.482;2022-12-28T11:31:51;15.82;;;8.98;;
21152;SDS011;10734;44.792;20.482;2022-12-28T11:34:27;18.00;;;9.57;;
21152;SDS011;10734;44.792;20.482;2022-12-28T11:36:57;22.90;;;13.35;;
21152;SDS011;10734;44.792;20.482;2022-12-28T11:41:54;16.50;;;11.18;;
21152;SDS011;10734;44.792;20.482;2022-12-28T11:49:42;14.93;;;9.50;;
21152;SDS011;10734;44.792;20.482;2022-12-28T11:57:33;15.10;;;8.23;;
21152;SDS011;10734;44.792;20.482;2022-12-28T12:03:04;10.70;;;7.50;;
21152;SDS011;10734;44.792;20.482;2022-12-28T12:08:01;12.10;;;8.20;;
21152;SDS011;10734;44.792;20.482;2022-12-28T12:10:37;15.50;;;8.57;;
21152;SDS011;10734;44.792;20.482;2022-12-28T12:15:55;17.25;;;10.52;;
21152;SDS011;10734;44.792;20.482;2022-12-28T12:18:25;42.65;;;24.55;;
21152;SDS011;10734;44.792;20.482;2022-12-28T12:20:59;20.20;;;10.30;;
21152;SDS011;10734;44.792;20.482;2022-12-28T12:23:52;28.60;;;16.95;;
21152;SDS011;10734;44.792;20.482;2022-12-28T12:26:35;32.30;;;19.30;;
21152;SDS011;10734;44.792;20.482;2022-12-28T12:31:55;16.13;;;9.15;;
21152;SDS011;10734;44.792;20.482;2022-12-28T12:34:37;11.98;;;8.32;;
21152;SDS011;10734;44.792;20.482;2022-12-28T12:39:50;14.65;;;10.25;;
21152;SDS011;10734;44.792;20.482;2022-12-28T12:57:01;20.10;;;12.23;;
21152;SDS011;10734;44.792;20.482;2022-12-28T13:04:50;21.02;;;13.13;;
21152;SDS011;10734;44.792;20.482;2022-12-28T13:07:19;21.58;;;13.02;;
21152;SDS011;10734;44.792;20.482;2022-12-28T13:09:49;21.48;;;13.30;;
21152;SDS011;10734;44.792;20.482;2022-12-28T13:12:25;19.70;;;12.05;;
21152;SDS011;10734;44.792;20.482;2022-12-28T13:14:56;21.67;;;14.48;;
21152;SDS011;10734;44.792;20.482;2022-12-28T13:17:26;27.10;;;20.23;;
21152;SDS011;10734;44.792;20.482;2022-12-28T13:20:09;20.65;;;11.98;;
21152;SDS011;10734;44.792;20.482;2022-12-28T13:22:46;27.80;;;16.42;;
21152;SDS011;10734;44.792;20.482;2022-12-28T13:25:22;20.77;;;12.95;;
21152;SDS011;10734;44.792;20.482;2022-12-28T13:27:50;24.70;;;11.55;;
21152;SDS011;10734;44.792;20.482;2022-12-28T13:30:18;21.73;;;12.25;;
21152;SDS011;10734;44.792;20.482;2022-12-28T13:32:50;22.75;;;12.63;;
21152;SDS011;10734;44.792;20.482;2022-12-28T13:35:21;23.13;;;14.20;;
21152;SDS011;10734;44.792;20.482;2022-12-28T13:38:03;25.00;;;14.00;;
21152;SDS011;10734;44.792;20.482;2022-12-28T13:40:38;21.33;;;14.00;;
21152;SDS011;10734;44.792;20.482;2022-12-28T13:46:05;32.83;;;17.48;;
21152;SDS011;10734;44.792;20.482;2022-12-28T13:48:37;27.52;;;15.38;;
21152;SDS011;10734;44.792;20.482;2022-12-28T13:51:10;23.38;;;14.95;;
21152;SDS011;10734;44.792;20.482;2022-12-28T13:53:39;23.77;;;14.68;;
21152;SDS011;10734;44.792;20.482;2022-12-28T13:56:11;22.87;;;14.43;;
21152;SDS011;10734;44.792;20.482;2022-12-28T13:58:42;29.38;;;18.15;;
21152;SDS011;10734;44.792;20.482;2022-12-28T14:01:19;25.40;;;15.27;;
21152;SDS011;10734;44.792;20.482;2022-12-28T14:03:50;29.13;;;16.60;;
21152;SDS011;10734;44.792;20.482;2022-12-28T14:06:34;27.95;;;16.45;;
21152;SDS011;10734;44.792;20.482;2022-12-28T14:09:01;27.02;;;15.93;;
21152;SDS011;10734;44.792;20.482;2022-12-28T14:11:31;31.27;;;16.83;;
21152;SDS011;10734;44.792;20.482;2022-12-28T14:13:59;29.50;;;15.63;;
21152;SDS011;10734;44.792;20.482;2022-12-28T14:16:26;26.80;;;15.52;;
21152;SDS011;10734;44.792;20.482;2022-12-28T14:18:55;26.88;;;14.95;;
21152;SDS011;10734;44.792;20.482;2022-12-28T14:21:30;23.50;;;14.02;;
21152;SDS011;10734;44.792;20.482;2022-12-28T14:24:02;27.90;;;14.65;;
21152;SDS011;10734;44.792;20.482;2022-12-28T14:26:33;30.25;;;16.80;;
21152;SDS011;10734;44.792;20.482;2022-12-28T14:29:02;28.50;;;17.85;;
21152;SDS011;10734;44.792;20.482;2022-12-28T14:31:36;29.60;;;16.25;;
21152;SDS011;10734;44.792;20.482;2022-12-28T14:34:04;107.75;;;53.00;;
21152;SDS011;10734;44.792;20.482;2022-12-28T14:36:33;58.28;;;29.65;;
21152;SDS011;10734;44.792;20.482;2022-12-28T14:39:05;62.22;;;34.90;;
21152;SDS011;10734;44.792;20.482;2022-12-28T14:41:33;35.67;;;22.75;;
21152;SDS011;10734;44.792;20.482;2022-12-28T14:44:04;37.28;;;19.30;;
21152;SDS011;10734;44.792;20.482;2022-12-28T14:46:40;32.88;;;19.38;;
21152;SDS011;10734;44.792;20.482;2022-12-28T14:49:29;36.40;;;19.05;;
21152;SDS011;10734;44.792;20.482;2022-12-28T14:54:53;29.65;;;16.98;;
21152;SDS011;10734;44.792;20.482;2022-12-28T14:57:33;30.52;;;16.30;;
21152;SDS011;10734;44.792;20.482;2022-12-28T15:00:03;30.80;;;16.58;;
21152;SDS011;10734;44.792;20.482;2022-12-28T15:04:58;28.30;;;16.00;;
21152;SDS011;10734;44.792;20.482;2022-12-28T15:07:26;27.73;;;15.88;;
21152;SDS011;10734;44.792;20.482;2022-12-28T15:09:52;33.15;;;18.05;;
21152;SDS011;10734;44.792;20.482;2022-12-28T15:12:28;44.72;;;22.77;;
21152;SDS011;10734;44.792;20.482;2022-12-28T15:14:55;36.63;;;20.73;;
21152;SDS011;10734;44.792;20.482;2022-12-28T15:17:22;31.48;;;16.73;;
21152;SDS011;10734;44.792;20.482;2022-12-28T15:19:56;31.50;;;17.88;;
21152;SDS011;10734;44.792;20.482;2022-12-28T15:22:23;41.78;;;22.73;;
21152;SDS011;10734;44.792;20.482;2022-12-28T15:24:51;33.25;;;16.58;;
21152;SDS011;10734;44.792;20.482;2022-12-28T15:27:19;41.50;;;21.45;;
21152;SDS011;10734;44.792;20.482;2022-12-28T15:29:45;34.55;;;18.13;;
21152;SDS011;10734;44.792;20.482;2022-12-28T15:32:30;27.70;;;14.55;;
21152;SDS011;10734;44.792;20.482;2022-12-28T15:34:57;29.30;;;16.00;;
21152;SDS011;10734;44.792;20.482;2022-12-28T15:37:25;32.20;;;16.48;;
21152;SDS011;10734;44.792;20.482;2022-12-28T15:39:52;28.70;;;15.02;;
21152;SDS011;10734;44.792;20.482;2022-12-28T15:42:28;34.85;;;17.05;;
21152;SDS011;10734;44.792;20.482;2022-12-28T15:45:00;32.35;;;15.57;;
21152;SDS011;10734;44.792;20.482;2022-12-28T15:47:27;34.97;;;17.17;;
21152;SDS011;10734;44.792;20.482;2022-12-28T15:49:55;39.00;;;17.00;;
21152;SDS011;10734;44.792;20.482;2022-12-28T15:52:23;36.65;;;17.80;;
21152;SDS011;10734;44.792;20.482;2022-12-28T15:54:50;38.80;;;19.40;;
21152;SDS011;10734;44.792;20.482;2022-12-28T15:57:18;45.17;;;20.00;;
21152;SDS011;10734;44.792;20.482;2022-12-28T15:59:45;48.67;;;22.25;;
21152;SDS011;10734;44.792;20.482;2022-12-28T16:02:11;48.75;;;22.77;;
21152;SDS011;10734;44.792;20.482;2022-12-28T16:04:39;51.40;;;22.83;;
21152;SDS011;10734;44.792;20.482;2022-12-28T16:07:06;54.45;;;23.02;;
21152;SDS011;10734;44.792;20.482;2022-12-28T16:09:33;56.75;;;25.83;;
21152;SDS011;10734;44.792;20.482;2022-12-28T16:12:00;49.22;;;24.05;;